Time,TemperatureF,DewpointF,PressureIn,WindDirection,WindDirectionDegrees,WindSpeedMPH,WindSpeedGustMPH,Humidity,HourlyPrecipIn,Conditions,Clouds,dailyrainin,SolarRadiationWatts/m^2,SoftwareType,DateUTC
2013-08-09 00:01:00,78.0,74.0,-100.00,SW,226,0.0,4.0,89,0.00,,,0.00,0.000000,,2013-08-09 04:01:00,
2013-08-09 00:33:00,78.0,75.0,-100.00,SSE,158,1.0,4.0,91,0.00,,,0.00,0.000000,,2013-08-09 04:33:00,
2013-08-09 00:43:00,78.0,75.0,-100.00,SSE,158,1.0,4.0,91,0.00,,,0.00,0.000000,,2013-08-09 04:43:00,
2013-08-09 00:53:00,78.0,75.0,-100.00,SSE,158,1.0,4.0,91,0.00,,,0.00,0.000000,,2013-08-09 04:53:00,
2013-08-09 01:02:00,78.0,75.0,-100.00,SSE,158,1.0,4.0,91,0.00,,,0.00,0.000000,,2013-08-09 05:02:00,
2013-08-09 01:33:00,79.0,75.0,-100.00,SE,126,2.0,5.0,89,0.00,,,0.00,0.000000,,2013-08-09 05:33:00,
2013-08-09 01:43:00,79.0,75.0,-100.00,SE,126,2.0,5.0,89,0.00,,,0.00,0.000000,,2013-08-09 05:43:00,
2013-08-09 01:52:00,79.0,75.0,-100.00,SE,126,2.0,5.0,89,0.00,,,0.00,0.000000,,2013-08-09 05:52:00,
2013-08-09 02:01:00,79.0,75.0,-100.00,SE,126,2.0,5.0,89,0.00,,,0.00,0.000000,,2013-08-09 06:01:00,
2013-08-09 02:32:00,78.0,75.0,-100.00,SSE,152,2.0,5.0,90,0.00,,,0.00,0.000000,,2013-08-09 06:32:00,
2013-08-09 02:43:00,78.0,75.0,-100.00,SSE,152,2.0,5.0,90,0.00,,,0.00,0.000000,,2013-08-09 06:43:00,
2013-08-09 02:52:00,78.0,75.0,-100.00,SSE,152,2.0,5.0,90,0.00,,,0.00,0.000000,,2013-08-09 06:52:00,
2013-08-09 03:01:00,78.0,75.0,-100.00,SSE,152,2.0,5.0,90,0.00,,,0.00,0.000000,,2013-08-09 07:01:00,
2013-08-09 03:22:00,78.0,75.0,-100.00,NE,55,1.0,4.0,90,0.00,,,0.00,0.000000,,2013-08-09 07:22:00,
2013-08-09 03:33:00,78.0,75.0,-100.00,NE,55,1.0,4.0,90,0.00,,,0.00,0.000000,,2013-08-09 07:33:00,
2013-08-09 03:43:00,78.0,75.0,-100.00,NE,55,1.0,4.0,90,0.00,,,0.00,0.000000,,2013-08-09 07:43:00,
2013-08-09 03:53:00,78.0,75.0,-100.00,NE,55,1.0,4.0,90,0.00,,,0.00,0.000000,,2013-08-09 07:53:00,
2013-08-09 04:02:00,78.0,75.0,-100.00,NE,55,1.0,4.0,90,0.00,,,0.00,0.000000,,2013-08-09 08:02:00,
2013-08-09 04:32:00,77.0,74.0,-100.00,West,268,1.0,4.0,91,0.00,,,0.00,0.000000,,2013-08-09 08:32:00,
2013-08-09 04:43:00,77.0,74.0,-100.00,West,268,1.0,4.0,91,0.00,,,0.00,0.000000,,2013-08-09 08:43:00,
2013-08-09 04:53:00,77.0,74.0,-100.00,West,268,1.0,4.0,91,0.00,,,0.00,0.000000,,2013-08-09 08:53:00,
2013-08-09 05:02:00,77.0,74.0,-100.00,West,268,1.0,4.0,91,0.00,,,0.00,0.000000,,2013-08-09 09:02:00,
2013-08-09 05:32:00,75.0,73.0,-100.00,SW,225,0.0,2.0,93,0.00,,,0.00,0.000000,,2013-08-09 09:32:00,
2013-08-09 05:43:00,75.0,73.0,-100.00,SW,225,0.0,2.0,93,0.00,,,0.00,0.000000,,2013-08-09 09:43:00,
2013-08-09 05:52:00,75.0,73.0,-100.00,SW,225,0.0,2.0,93,0.00,,,0.00,0.000000,,2013-08-09 09:52:00,
2013-08-09 06:01:00,75.0,73.0,-100.00,SW,225,0.0,2.0,93,0.00,,,0.00,0.000000,,2013-08-09 10:01:00,
2013-08-09 06:32:00,74.0,72.0,-100.00,North,359,0.0,1.0,94,0.00,,,0.00,0.000000,,2013-08-09 10:32:00,
2013-08-09 06:43:00,74.0,72.0,-100.00,North,359,0.0,1.0,94,0.00,,,0.00,0.000000,,2013-08-09 10:43:00,
2013-08-09 06:53:00,74.0,72.0,-100.00,North,359,0.0,1.0,94,0.00,,,0.00,0.000000,,2013-08-09 10:53:00,
2013-08-09 07:02:00,74.0,72.0,-100.00,North,359,0.0,1.0,94,0.00,,,0.00,0.000000,,2013-08-09 11:02:00,
2013-08-09 07:33:00,73.0,71.0,-100.00,West,275,0.0,0.0,94,0.00,,,0.00,2.000000,,2013-08-09 11:33:00,
2013-08-09 07:43:00,73.0,71.0,-100.00,West,275,0.0,0.0,94,0.00,,,0.00,2.000000,,2013-08-09 11:43:00,
2013-08-09 07:53:00,73.0,71.0,-100.00,West,275,0.0,0.0,94,0.00,,,0.00,2.000000,,2013-08-09 11:53:00,
2013-08-09 08:02:00,73.0,71.0,-100.00,West,275,0.0,0.0,94,0.00,,,0.00,2.000000,,2013-08-09 12:02:00,
2013-08-09 08:32:00,78.0,76.0,-100.00,NW,320,0.0,0.0,94,0.00,,,0.00,73.000000,,2013-08-09 12:32:00,
2013-08-09 08:43:00,78.0,76.0,-100.00,NW,320,0.0,0.0,94,0.00,,,0.00,73.000000,,2013-08-09 12:43:00,
2013-08-09 08:52:00,78.0,76.0,-100.00,NW,320,0.0,0.0,94,0.00,,,0.00,73.000000,,2013-08-09 12:52:00,
2013-08-09 09:01:00,78.0,76.0,-100.00,NW,320,0.0,0.0,94,0.00,,,0.00,73.000000,,2013-08-09 13:01:00,
2013-08-09 09:32:00,84.0,78.0,-100.00,SW,236,2.0,3.0,82,0.00,,,0.00,269.000000,,2013-08-09 13:32:00,
2013-08-09 09:43:00,84.0,78.0,-100.00,SW,236,2.0,3.0,82,0.00,,,0.00,269.000000,,2013-08-09 13:43:00,
2013-08-09 09:52:00,84.0,78.0,-100.00,SW,236,2.0,3.0,82,0.00,,,0.00,269.000000,,2013-08-09 13:52:00,
2013-08-09 10:02:00,84.0,78.0,-100.00,SW,236,2.0,3.0,82,0.00,,,0.00,269.000000,,2013-08-09 14:02:00,
2013-08-09 10:33:00,87.0,77.0,-100.00,WSW,243,3.0,7.0,73,0.00,,,0.00,363.000000,,2013-08-09 14:33:00,
2013-08-09 10:43:00,87.0,77.0,-100.00,WSW,243,3.0,7.0,73,0.00,,,0.00,363.000000,,2013-08-09 14:43:00,
2013-08-09 10:53:00,87.0,77.0,-100.00,WSW,243,3.0,7.0,73,0.00,,,0.00,363.000000,,2013-08-09 14:53:00,
2013-08-09 11:02:00,87.0,77.0,-100.00,WSW,243,3.0,7.0,73,0.00,,,0.00,363.000000,,2013-08-09 15:02:00,
2013-08-09 11:33:00,87.0,76.0,-100.00,ESE,111,2.0,6.0,69,0.00,,,0.00,530.000000,,2013-08-09 15:33:00,
2013-08-09 11:44:00,87.0,76.0,-100.00,ESE,111,2.0,6.0,69,0.00,,,0.00,530.000000,,2013-08-09 15:44:00,
2013-08-09 11:53:00,87.0,76.0,-100.00,ESE,111,2.0,6.0,69,0.00,,,0.00,530.000000,,2013-08-09 15:53:00,
2013-08-09 12:02:00,87.0,76.0,-100.00,ESE,111,2.0,6.0,69,0.00,,,0.00,530.000000,,2013-08-09 16:02:00,
2013-08-09 12:32:00,91.0,75.0,-100.00,NW,315,3.0,5.0,60,0.00,,,0.00,654.000000,,2013-08-09 16:32:00,
2013-08-09 12:43:00,91.0,75.0,-100.00,NW,315,3.0,5.0,60,0.00,,,0.00,654.000000,,2013-08-09 16:43:00,
2013-08-09 12:53:00,91.0,75.0,-100.00,NW,315,3.0,5.0,60,0.00,,,0.00,654.000000,,2013-08-09 16:53:00,
2013-08-09 13:02:00,91.0,75.0,-100.00,NW,315,3.0,5.0,60,0.00,,,0.00,654.000000,,2013-08-09 17:02:00,
2013-08-09 13:33:00,91.0,70.0,-100.00,East,101,3.0,6.0,50,0.00,,,0.00,795.000000,,2013-08-09 17:33:00,
2013-08-09 13:43:00,91.0,70.0,-100.00,East,101,3.0,6.0,50,0.00,,,0.00,795.000000,,2013-08-09 17:43:00,
2013-08-09 13:52:00,91.0,70.0,-100.00,East,101,3.0,6.0,50,0.00,,,0.00,795.000000,,2013-08-09 17:52:00,
2013-08-09 14:01:00,91.0,70.0,-100.00,East,101,3.0,6.0,50,0.00,,,0.00,795.000000,,2013-08-09 18:01:00,
2013-08-09 14:32:00,91.0,68.0,-100.00,East,90,4.0,6.0,47,0.00,,,0.00,715.000000,,2013-08-09 18:32:00,
2013-08-09 14:43:00,91.0,68.0,-100.00,East,90,4.0,6.0,47,0.00,,,0.00,715.000000,,2013-08-09 18:43:00,
2013-08-09 14:53:00,91.0,68.0,-100.00,East,90,4.0,6.0,47,0.00,,,0.00,715.000000,,2013-08-09 18:53:00,
2013-08-09 15:02:00,91.0,68.0,-100.00,East,90,4.0,6.0,47,0.00,,,0.00,715.000000,,2013-08-09 19:02:00,
2013-08-09 15:32:00,92.0,73.0,-100.00,ESE,121,4.0,11.0,54,0.00,,,0.00,918.000000,,2013-08-09 19:32:00,
2013-08-09 15:43:00,92.0,73.0,-100.00,ESE,121,4.0,11.0,54,0.00,,,0.00,918.000000,,2013-08-09 19:43:00,
2013-08-09 15:52:00,92.0,73.0,-100.00,ESE,121,4.0,11.0,54,0.00,,,0.00,918.000000,,2013-08-09 19:52:00,
2013-08-09 16:02:00,92.0,73.0,-100.00,ESE,121,4.0,11.0,54,0.00,,,0.00,918.000000,,2013-08-09 20:02:00,
2013-08-09 16:32:00,92.0,72.0,-100.00,ESE,122,4.0,11.0,52,0.00,,,0.00,923.000000,,2013-08-09 20:32:00,
2013-08-09 16:43:00,92.0,72.0,-100.00,ESE,122,4.0,11.0,52,0.00,,,0.00,923.000000,,2013-08-09 20:43:00,
2013-08-09 16:52:00,92.0,72.0,-100.00,ESE,122,4.0,11.0,52,0.00,,,0.00,923.000000,,2013-08-09 20:52:00,
2013-08-09 17:01:00,92.0,72.0,-100.00,ESE,122,4.0,11.0,52,0.00,,,0.00,923.000000,,2013-08-09 21:01:00,
2013-08-09 17:33:00,91.0,73.0,-100.00,SE,142,4.0,10.0,55,0.00,,,0.00,788.000000,,2013-08-09 21:33:00,
2013-08-09 17:43:00,91.0,73.0,-100.00,SE,142,4.0,10.0,55,0.00,,,0.00,788.000000,,2013-08-09 21:43:00,
2013-08-09 17:52:00,91.0,73.0,-100.00,SE,142,4.0,10.0,55,0.00,,,0.00,788.000000,,2013-08-09 21:52:00,
2013-08-09 18:02:00,91.0,73.0,-100.00,SE,142,4.0,10.0,55,0.00,,,0.00,788.000000,,2013-08-09 22:02:00,
2013-08-09 18:32:00,88.0,70.0,-100.00,ESE,108,5.0,11.0,56,0.00,,,0.00,507.000000,,2013-08-09 22:32:00,
2013-08-09 18:43:00,88.0,70.0,-100.00,ESE,108,5.0,11.0,56,0.00,,,0.00,507.000000,,2013-08-09 22:43:00,
2013-08-09 18:52:00,88.0,70.0,-100.00,ESE,108,5.0,11.0,56,0.00,,,0.00,507.000000,,2013-08-09 22:52:00,
2013-08-09 19:02:00,88.0,70.0,-100.00,ESE,108,5.0,11.0,56,0.00,,,0.00,507.000000,,2013-08-09 23:02:00,
2013-08-09 19:32:00,86.0,72.0,-100.00,SE,134,4.0,11.0,63,0.00,,,-99.99,202.000000,,2013-08-09 23:32:00,
2013-08-09 19:43:00,86.0,72.0,-100.00,SE,134,4.0,11.0,63,0.00,,,-99.99,202.000000,,2013-08-09 23:43:00,
2013-08-09 19:52:00,86.0,72.0,-100.00,SE,134,4.0,11.0,63,0.00,,,-99.99,202.000000,,2013-08-09 23:52:00,
2013-08-09 20:01:00,86.0,72.0,-100.00,SE,134,4.0,11.0,63,0.00,,,-99.99,202.000000,,2013-08-10 00:01:00,
2013-08-09 20:33:00,83.0,73.0,-100.00,ESE,108,5.0,11.0,72,0.00,,,0.00,71.000000,,2013-08-10 00:33:00,
2013-08-09 20:43:00,83.0,73.0,-100.00,ESE,108,5.0,11.0,72,0.00,,,0.00,71.000000,,2013-08-10 00:43:00,
2013-08-09 20:53:00,83.0,73.0,-100.00,ESE,108,5.0,11.0,72,0.00,,,0.00,71.000000,,2013-08-10 00:53:00,
2013-08-09 21:01:00,83.0,73.0,-100.00,ESE,108,5.0,11.0,72,0.00,,,0.00,71.000000,,2013-08-10 01:01:00,
2013-08-09 21:32:00,81.0,73.0,-100.00,ESE,107,2.0,6.0,78,0.00,,,-99.99,1.000000,,2013-08-10 01:32:00,
2013-08-09 21:43:00,81.0,73.0,-100.00,ESE,107,2.0,6.0,78,0.00,,,-99.99,1.000000,,2013-08-10 01:43:00,
2013-08-09 21:52:00,81.0,73.0,-100.00,ESE,107,2.0,6.0,78,0.00,,,-99.99,1.000000,,2013-08-10 01:52:00,
2013-08-09 22:03:00,81.0,73.0,-100.00,ESE,107,2.0,6.0,78,0.00,,,-99.99,1.000000,,2013-08-10 02:03:00,
2013-08-09 22:21:00,80.0,74.0,-100.00,ESE,117,3.0,5.0,82,0.00,,,0.00,0.000000,,2013-08-10 02:21:00,
2013-08-09 22:32:00,80.0,74.0,-100.00,ESE,117,3.0,5.0,82,0.00,,,0.00,0.000000,,2013-08-10 02:32:00,
2013-08-09 22:42:00,80.0,74.0,-100.00,ESE,117,3.0,5.0,82,0.00,,,0.00,0.000000,,2013-08-10 02:42:00,
2013-08-09 22:52:00,80.0,74.0,-100.00,ESE,117,3.0,5.0,82,0.00,,,0.00,0.000000,,2013-08-10 02:52:00,
2013-08-09 23:01:00,80.0,74.0,-100.00,ESE,117,3.0,5.0,82,0.00,,,0.00,0.000000,,2013-08-10 03:01:00,
2013-08-09 23:22:00,80.0,75.0,-100.00,ESE,103,2.0,7.0,84,0.00,,,0.00,0.000000,,2013-08-10 03:22:00,
2013-08-09 23:32:00,80.0,75.0,-100.00,ESE,103,2.0,7.0,84,0.00,,,0.00,0.000000,,2013-08-10 03:32:00,
2013-08-09 23:42:00,80.0,75.0,-100.00,ESE,103,2.0,7.0,84,0.00,,,0.00,0.000000,,2013-08-10 03:42:00,
2013-08-09 23:52:00,80.0,75.0,-100.00,ESE,103,2.0,7.0,84,0.00,,,0.00,0.000000,,2013-08-10 03:52:00,